createdAt,value
2022-09-05T00:02:30.252Z,101015.22
2022-09-05T00:05:09.864Z,101022.16
2022-09-05T00:07:59.566Z,101005.56
2022-09-05T00:11:19.463Z,101007.94
2022-09-05T00:13:33.022Z,100996.38
2022-09-05T00:16:25.860Z,100992.41
2022-09-05T00:24:17.725Z,100995.00
2022-09-05T00:24:31.662Z,100997.84
2022-09-05T00:25:32.668Z,101001.78
2022-09-05T00:28:26.316Z,101003.03
2022-09-05T00:31:54.303Z,100997.75
2022-09-05T00:34:47.016Z,101008.66
2022-09-05T00:37:29.206Z,100996.69
2022-09-05T00:40:18.514Z,101010.53
2022-09-05T00:42:50.536Z,101008.22
2022-09-05T00:45:28.061Z,101013.25
2022-09-05T00:48:04.298Z,101009.09
2022-09-05T00:50:41.949Z,101004.09
2022-09-05T00:53:19.912Z,101000.88
2022-09-05T00:55:59.130Z,101008.03
2022-09-05T00:59:03.353Z,101005.06
2022-09-05T01:01:44.802Z,101011.47
2022-09-05T01:04:33.640Z,101020.22
2022-09-05T01:07:18.008Z,101012.81
2022-09-05T01:10:04.492Z,101010.25
2022-09-05T01:12:53.129Z,101013.56
2022-09-05T01:15:32.160Z,101011.97
2022-09-05T01:18:23.267Z,101015.16
2022-09-05T01:21:17.361Z,101017.63
2022-09-05T01:24:04.565Z,101024.66
2022-09-05T01:26:48.955Z,101018.00
2022-09-05T01:29:26.684Z,101023.69
2022-09-05T01:32:15.415Z,101015.44
2022-09-05T01:35:00.731Z,101019.88
2022-09-05T01:37:37.512Z,101015.19
2022-09-05T01:40:25.122Z,101021.84
2022-09-05T01:43:07.057Z,101026.25
2022-09-05T01:45:50.637Z,101029.09
2022-09-05T01:48:31.438Z,101031.06
2022-09-05T01:51:28.942Z,101040.66
2022-09-05T01:54:25.495Z,101032.53
2022-09-05T01:57:12.301Z,101030.22
2022-09-05T01:59:53.009Z,101029.94
2022-09-05T02:02:50.862Z,101025.78
2022-09-05T02:05:52.252Z,101026.25
2022-09-05T02:08:31.352Z,101028.84
2022-09-05T02:11:06.262Z,101031.41
2022-09-05T02:13:55.246Z,101027.22
2022-09-05T02:16:30.289Z,101028.69
2022-09-05T02:19:08.408Z,101027.47
2022-09-05T02:21:56.838Z,101026.50
2022-09-05T02:24:30.525Z,101025.00
2022-09-05T02:27:31.614Z,101030.06
2022-09-05T02:30:11.150Z,101023.31
2022-09-05T02:32:48.362Z,101031.16
2022-09-05T02:35:26.458Z,101028.34
2022-09-05T02:40:03.713Z,101030.66
2022-09-05T02:45:08.708Z,101042.38
2022-09-05T02:45:20.201Z,101042.25
2022-09-05T02:46:50.840Z,101036.34
2022-09-05T02:51:20.114Z,101043.94
2022-09-05T02:57:25.428Z,101037.31
2022-09-05T02:57:34.403Z,101044.91
2022-09-05T02:58:31.307Z,101046.53
2022-09-05T03:01:15.773Z,101051.81
2022-09-05T03:03:53.786Z,101052.69
2022-09-05T03:06:35.152Z,101054.78
2022-09-05T03:09:25.530Z,101048.75
2022-09-05T03:12:29.589Z,101043.31
2022-09-05T03:15:38.965Z,101039.78
2022-09-05T03:18:43.261Z,101041.75
2022-09-05T03:21:48.886Z,101035.72
2022-09-05T03:24:56.190Z,101041.88
2022-09-05T03:28:09.276Z,101033.50
2022-09-05T03:30:53.377Z,101035.09
2022-09-05T03:33:51.051Z,101041.13
2022-09-05T03:37:03.449Z,101035.59
2022-09-05T03:40:16.927Z,101043.22
2022-09-05T03:43:20.260Z,101042.13
2022-09-05T03:46:15.579Z,101039.94
2022-09-05T03:50:38.806Z,101044.84
2022-09-05T03:57:05.748Z,101046.66
2022-09-05T03:57:21.027Z,101041.28
2022-09-05T03:58:55.469Z,101038.31
2022-09-05T04:02:40.323Z,101051.22
2022-09-05T04:08:06.780Z,101056.53
2022-09-05T04:08:17.042Z,101051.34
2022-09-05T04:10:12.093Z,101060.44
2022-09-05T04:12:50.993Z,101064.88
2022-09-05T04:15:30.354Z,101071.75
2022-09-05T04:18:03.704Z,101072.00
2022-09-05T04:20:40.950Z,101068.94
2022-09-05T04:23:17.249Z,101057.50
2022-09-05T04:26:11.126Z,101048.38
2022-09-05T04:28:53.830Z,101057.00
2022-09-05T04:31:31.591Z,101057.97
2022-09-05T04:34:14.457Z,101070.41
2022-09-05T04:36:46.000Z,101069.31
2022-09-05T04:39:28.915Z,101066.59
2022-09-05T04:42:04.064Z,101066.81
2022-09-05T04:44:36.959Z,101055.28
2022-09-05T04:47:14.259Z,101053.56
2022-09-05T04:49:50.553Z,101078.66
2022-09-05T04:52:59.005Z,101092.06
2022-09-05T04:55:29.750Z,101096.09
2022-09-05T04:58:01.909Z,101100.53
2022-09-05T05:06:02.822Z,101110.34
2022-09-05T05:06:09.089Z,101114.06
2022-09-05T05:06:42.292Z,101115.75
2022-09-05T05:09:21.878Z,101120.94
2022-09-05T05:18:02.848Z,101128.31
2022-09-05T05:18:06.722Z,101130.78
2022-09-05T05:18:11.815Z,101119.84
2022-09-05T05:20:42.674Z,101115.28
2022-09-05T05:23:16.413Z,101118.00
2022-09-05T05:25:50.664Z,101116.66
2022-09-05T05:28:28.547Z,101114.06
2022-09-05T05:31:01.967Z,101116.66
2022-09-05T05:33:34.807Z,101112.44
2022-09-05T05:36:05.484Z,101116.00
2022-09-05T05:38:43.627Z,101114.41
2022-09-05T05:41:19.088Z,101113.56
2022-09-05T05:43:48.471Z,101117.00
2022-09-05T05:46:29.782Z,101118.59
2022-09-05T05:49:14.636Z,101126.25
2022-09-05T05:52:00.958Z,101132.97
2022-09-05T05:54:39.177Z,101128.44
2022-09-05T05:57:33.037Z,101134.34
2022-09-05T06:00:27.408Z,101131.78
2022-09-05T06:03:33.654Z,101132.00
2022-09-05T06:06:28.698Z,101131.50
2022-09-05T06:14:52.252Z,101129.19
2022-09-05T06:15:02.808Z,101134.22
2022-09-05T06:16:30.856Z,101122.91
2022-09-05T06:20:20.922Z,101124.13
2022-09-05T06:22:55.482Z,101118.38
2022-09-05T06:26:00.310Z,101126.22
2022-09-05T06:28:42.316Z,101126.38
2022-09-05T06:31:31.845Z,101119.69
2022-09-05T06:34:33.282Z,101122.66
2022-09-05T06:37:07.318Z,101125.38
2022-09-05T06:39:53.247Z,101127.34
2022-09-05T06:42:42.643Z,101128.41
2022-09-05T06:45:39.348Z,101123.63
2022-09-05T06:48:21.484Z,101125.44
2022-09-05T06:51:31.669Z,101127.78
2022-09-05T06:54:24.639Z,101132.72
2022-09-05T06:57:17.290Z,101129.78
2022-09-05T07:00:22.031Z,101129.50
2022-09-05T07:03:15.365Z,101133.94
2022-09-05T07:05:55.745Z,101127.13
2022-09-05T07:08:35.966Z,101120.22
2022-09-05T07:11:15.825Z,101127.00
2022-09-05T07:13:57.563Z,101127.00
2022-09-05T07:16:38.883Z,101117.75
2022-09-05T07:19:25.575Z,101107.91
2022-09-05T07:22:18.434Z,101113.97
2022-09-05T07:24:57.896Z,101113.94
2022-09-05T07:27:34.829Z,101118.34
2022-09-05T07:30:20.665Z,101121.63
2022-09-05T07:32:53.471Z,101113.69
2022-09-05T07:35:29.329Z,101119.44
2022-09-05T07:38:07.154Z,101119.09
2022-09-05T07:40:39.749Z,101116.16
2022-09-05T07:43:11.213Z,101112.31
2022-09-05T07:45:56.123Z,101111.84
2022-09-05T07:48:34.995Z,101117.47
2022-09-05T07:56:47.856Z,101115.91
2022-09-05T07:57:07.932Z,101122.47
2022-09-05T07:59:42.721Z,101119.47
2022-09-05T08:02:14.026Z,101123.84
2022-09-05T08:04:42.987Z,101119.25
2022-09-05T08:07:47.879Z,101115.59
2022-09-05T08:10:11.121Z,101116.94
2022-09-05T08:13:24.048Z,101110.53
2022-09-05T08:16:13.436Z,101109.00
2022-09-05T08:18:42.512Z,101112.16
2022-09-05T08:21:14.803Z,101123.44
2022-09-05T08:23:56.586Z,101116.56
2022-09-05T08:26:44.059Z,101113.72
2022-09-05T08:29:28.402Z,101110.31
2022-09-05T08:32:03.534Z,101120.38
2022-09-05T08:34:44.803Z,101111.63
2022-09-05T08:37:21.650Z,101107.47
2022-09-05T08:40:10.098Z,101107.19
2022-09-05T08:44:09.913Z,101103.16
2022-09-05T08:46:47.586Z,101103.97
2022-09-05T08:49:12.398Z,101109.47
2022-09-05T08:51:55.350Z,101115.00
2022-09-05T08:54:33.099Z,101119.22
2022-09-05T08:57:13.525Z,101116.81
2022-09-05T09:00:02.725Z,101109.03
2022-09-05T09:03:03.884Z,101109.56
2022-09-05T09:06:13.434Z,101101.56
2022-09-05T09:09:11.084Z,101105.28
2022-09-05T09:11:44.602Z,101098.16
2022-09-05T09:14:32.122Z,101098.09
2022-09-05T09:17:10.481Z,101096.22
2022-09-05T09:19:49.825Z,101100.31
2022-09-05T09:22:33.257Z,101102.78
2022-09-05T09:25:15.073Z,101095.25
2022-09-05T09:28:48.487Z,101095.63
2022-09-05T09:31:03.469Z,101097.25
2022-09-05T09:33:41.877Z,101101.94
2022-09-05T09:36:27.966Z,101104.41
2022-09-05T09:39:37.411Z,101093.19
2022-09-05T09:42:33.478Z,101098.84
2022-09-05T09:45:29.699Z,101091.22
2022-09-05T09:48:26.324Z,101083.28
2022-09-05T09:51:12.716Z,101069.41
2022-09-05T09:53:59.375Z,101074.72
2022-09-05T09:57:00.729Z,101067.50
2022-09-05T09:59:54.088Z,101070.81
2022-09-05T10:08:57.404Z,101075.53
2022-09-05T10:10:45.542Z,101070.44
2022-09-05T10:10:55.577Z,101077.00
2022-09-05T10:12:15.378Z,101068.13
2022-09-05T10:15:06.559Z,101062.28
2022-09-05T10:18:24.125Z,101058.72
2022-09-05T10:21:25.807Z,101058.38
2022-09-05T10:24:28.088Z,101056.94
2022-09-05T10:27:26.837Z,101048.13
2022-09-05T10:30:13.853Z,101044.22
2022-09-05T10:35:07.718Z,101034.38
2022-09-05T10:36:21.037Z,101034.38
2022-09-05T10:39:02.630Z,101038.50
2022-09-05T10:41:43.762Z,101032.56
2022-09-05T10:44:15.104Z,101030.50
2022-09-05T10:46:55.502Z,101032.34
2022-09-05T10:49:29.983Z,101021.47
2022-09-05T10:52:18.989Z,101023.63
2022-09-05T10:55:16.148Z,101024.63
2022-09-05T10:58:00.053Z,101018.50
2022-09-05T11:02:22.383Z,101014.03
2022-09-05T11:03:50.411Z,101000.63
2022-09-05T11:06:24.983Z,101005.16
2022-09-05T11:09:04.719Z,101003.78
2022-09-05T11:11:46.162Z,100998.81
2022-09-05T11:14:35.242Z,100996.72
2022-09-05T11:17:14.531Z,100989.44
2022-09-05T11:19:45.728Z,100988.75
2022-09-05T11:22:22.941Z,100976.78
2022-09-05T11:24:57.094Z,100989.44
2022-09-05T11:27:31.833Z,100984.31
2022-09-05T11:30:05.816Z,100983.28
2022-09-05T11:39:53.971Z,100978.16
2022-09-05T11:40:02.802Z,100975.44
2022-09-05T11:40:09.001Z,100978.84
2022-09-05T11:42:24.625Z,100969.72
2022-09-05T11:45:16.794Z,100957.47
2022-09-05T11:48:23.338Z,100956.09
2022-09-05T11:51:10.120Z,100973.25
2022-09-05T11:54:00.801Z,100966.75
2022-09-05T11:57:11.393Z,100965.31
2022-09-05T12:00:32.065Z,100967.75
2022-09-05T12:03:58.037Z,100960.63
2022-09-05T12:07:29.889Z,100951.25
2022-09-05T12:10:10.590Z,100946.16
2022-09-05T12:13:17.507Z,100948.38
2022-09-05T12:16:08.100Z,100945.38
2022-09-05T12:18:46.622Z,100957.06
2022-09-05T12:21:31.738Z,100954.50
2022-09-05T12:24:59.298Z,100951.88
2022-09-05T12:27:40.470Z,100950.81
2022-09-05T12:29:59.749Z,100944.59
2022-09-05T12:34:46.705Z,100926.28
2022-09-05T12:36:10.173Z,100923.88
2022-09-05T12:40:44.819Z,100929.22
2022-09-05T12:41:44.939Z,100929.66
2022-09-05T12:44:44.408Z,100924.25
2022-09-05T12:47:19.794Z,100919.94
2022-09-05T12:50:02.653Z,100920.88
2022-09-05T12:52:42.554Z,100909.25
2022-09-05T12:55:20.783Z,100907.81
2022-09-05T13:02:15.994Z,100899.81
2022-09-05T13:03:12.524Z,100896.69
2022-09-05T13:03:48.500Z,100892.41
2022-09-05T13:06:31.536Z,100893.72
2022-09-05T13:09:05.018Z,100894.19
2022-09-05T13:14:56.585Z,100893.34
2022-09-05T13:15:03.211Z,100896.78
2022-09-05T13:17:44.422Z,100887.19
2022-09-05T13:20:20.457Z,100890.13
2022-09-05T13:22:54.341Z,100879.38
2022-09-05T13:25:27.253Z,100873.06
2022-09-05T13:28:01.676Z,100867.56
2022-09-05T13:36:38.679Z,100859.03
2022-09-05T13:38:04.623Z,100854.38
2022-09-05T13:38:11.256Z,100846.41
2022-09-05T13:39:12.888Z,100839.59
2022-09-05T13:41:46.272Z,100838.81
2022-09-05T13:44:25.648Z,100837.44
2022-09-05T13:47:01.083Z,100833.34
2022-09-05T13:49:35.253Z,100827.94
2022-09-05T13:52:22.387Z,100825.34
2022-09-05T13:55:00.550Z,100822.41
2022-09-05T13:57:37.308Z,100815.97
2022-09-05T14:00:53.067Z,100804.06
2022-09-05T14:03:58.800Z,100812.97
2022-09-05T14:10:21.948Z,100812.69
2022-09-05T14:13:01.223Z,100807.88
2022-09-05T14:15:41.069Z,100798.97
2022-09-05T14:18:21.420Z,100789.75
2022-09-05T14:21:13.483Z,100786.09
2022-09-05T14:23:48.651Z,100785.72
2022-09-05T14:26:24.860Z,100774.31
2022-09-05T14:29:02.289Z,100780.28
2022-09-05T14:35:20.779Z,100775.31
2022-09-05T14:37:38.988Z,100764.09
2022-09-05T14:38:07.914Z,100773.22
2022-09-05T14:41:28.365Z,100774.84
2022-09-05T14:44:27.608Z,100759.88
2022-09-05T14:47:34.676Z,100769.22
2022-09-05T14:50:29.343Z,100765.38
2022-09-05T14:56:23.175Z,100758.19
2022-09-05T15:02:49.131Z,100750.94
2022-09-05T15:02:52.914Z,100758.34
2022-09-05T15:04:44.687Z,100745.94
2022-09-05T15:07:19.726Z,100750.53
2022-09-05T15:12:15.725Z,100745.53
2022-09-05T15:12:51.207Z,100740.44
2022-09-05T15:15:26.085Z,100748.03
2022-09-05T15:17:59.934Z,100739.28
2022-09-05T15:20:35.844Z,100745.28
2022-09-05T15:23:16.197Z,100750.91
2022-09-05T15:25:48.424Z,100751.28
2022-09-05T15:28:23.157Z,100747.75
2022-09-05T15:31:00.082Z,100754.28
2022-09-05T15:33:31.369Z,100743.94
2022-09-05T15:36:00.781Z,100743.81
2022-09-05T15:38:38.747Z,100738.03
2022-09-05T15:41:23.804Z,100735.63
2022-09-05T15:43:58.371Z,100724.31
2022-09-05T15:46:39.451Z,100724.97
2022-09-05T15:49:14.329Z,100726.97
2022-09-05T15:51:48.097Z,100716.63
2022-09-05T15:54:38.112Z,100717.53
2022-09-05T15:57:17.517Z,100723.44
2022-09-05T15:59:49.525Z,100717.16
2022-09-05T16:02:22.268Z,100717.00
2022-09-05T16:10:29.253Z,100710.91
2022-09-05T16:10:43.754Z,100706.91
2022-09-05T16:11:20.296Z,100697.41
2022-09-05T16:13:52.599Z,100701.66
2022-09-05T16:23:09.313Z,100695.91
2022-09-05T16:23:24.302Z,100688.59
2022-09-05T16:23:26.563Z,100694.22
2022-09-05T16:25:01.397Z,100694.44
2022-09-05T16:27:43.871Z,100691.28
2022-09-05T16:30:15.745Z,100676.53
2022-09-05T16:32:50.929Z,100667.69
2022-09-05T16:35:24.895Z,100671.28
2022-09-05T16:38:03.412Z,100665.66
2022-09-05T16:40:36.347Z,100662.31
2022-09-05T16:43:10.160Z,100672.03
2022-09-05T16:45:46.136Z,100686.41
2022-09-05T16:48:43.215Z,100696.38
2022-09-05T16:51:34.778Z,100695.56
2022-09-05T16:54:14.031Z,100698.41
2022-09-05T16:56:45.768Z,100688.19
2022-09-05T16:59:19.258Z,100687.19
2022-09-05T17:02:05.915Z,100681.00
2022-09-05T17:05:05.001Z,100670.78
2022-09-05T17:07:50.453Z,100665.44
2022-09-05T17:10:24.256Z,100651.50
2022-09-05T17:12:53.024Z,100651.38
2022-09-05T17:15:26.234Z,100651.19
2022-09-05T17:18:20.698Z,100668.31
2022-09-05T17:20:52.160Z,100673.88
2022-09-05T17:29:16.804Z,100689.19
2022-09-05T17:29:37.958Z,100688.69
2022-09-05T17:31:23.407Z,100688.03
2022-09-05T17:32:28.500Z,100687.31
2022-09-05T17:35:18.206Z,100692.72
2022-09-05T17:38:19.269Z,100697.06
2022-09-05T17:41:15.279Z,100698.78
2022-09-05T17:43:51.079Z,100695.00
2022-09-05T17:46:23.812Z,100700.13
2022-09-05T17:49:18.866Z,100697.56
2022-09-05T17:52:20.584Z,100699.44
2022-09-05T17:54:52.404Z,100705.16
2022-09-05T17:57:40.041Z,100701.41
2022-09-05T18:00:47.422Z,100698.06
2022-09-05T18:04:15.890Z,100722.53
2022-09-05T18:06:59.250Z,100724.75
2022-09-05T18:10:12.705Z,100731.56
2022-09-05T18:13:12.657Z,100733.56
2022-09-05T18:16:12.460Z,100741.94
2022-09-05T18:19:27.625Z,100739.66
2022-09-05T18:21:49.610Z,100747.03
2022-09-05T18:24:42.693Z,100749.53
2022-09-05T18:30:13.151Z,100752.16
2022-09-05T18:34:03.426Z,100759.31
2022-09-05T18:36:42.674Z,100767.63
2022-09-05T18:39:47.246Z,100777.59
2022-09-05T18:42:33.634Z,100779.00
2022-09-05T18:45:14.614Z,100774.91
2022-09-05T18:47:50.951Z,100789.03
2022-09-05T18:50:29.356Z,100801.56
2022-09-05T18:53:09.991Z,100811.78
2022-09-05T18:56:12.616Z,100819.19
2022-09-05T18:58:35.978Z,100820.00
2022-09-05T19:01:28.331Z,100824.50
2022-09-05T19:04:01.093Z,100836.03
2022-09-05T19:06:36.412Z,100830.72
2022-09-05T19:09:09.151Z,100837.19
2022-09-05T19:11:52.754Z,100836.16
2022-09-05T19:14:37.628Z,100837.50
2022-09-05T19:17:10.437Z,100847.06
2022-09-05T19:20:31.961Z,100841.25
2022-09-05T19:23:11.351Z,100847.47
2022-09-05T19:25:43.594Z,100854.25
2022-09-05T19:36:58.355Z,100856.03
2022-09-05T19:37:03.124Z,100858.72
2022-09-05T19:37:03.293Z,100854.69
2022-09-05T19:47:11.021Z,100858.72
2022-09-05T19:47:26.678Z,100867.97
2022-09-05T19:47:36.818Z,100877.22
2022-09-05T19:48:25.293Z,100875.75
2022-09-05T19:50:56.850Z,100875.84
2022-09-05T19:53:25.909Z,100868.81
2022-09-05T19:55:54.861Z,100876.09
2022-09-05T19:58:25.007Z,100873.03
2022-09-05T20:01:03.615Z,100878.34
2022-09-05T20:03:39.140Z,100898.53
2022-09-05T20:06:29.357Z,100903.06
2022-09-05T20:09:11.297Z,100899.75
2022-09-05T20:11:46.292Z,100888.25
2022-09-05T20:14:23.883Z,100901.06
2022-09-05T20:16:54.948Z,100891.22
2022-09-05T20:19:31.238Z,100888.97
2022-09-05T20:22:14.371Z,100894.66
2022-09-05T20:24:52.354Z,100887.81
2022-09-05T20:27:27.127Z,100895.25
2022-09-05T20:29:58.277Z,100895.25
2022-09-05T20:32:38.535Z,100889.28
2022-09-05T20:40:05.472Z,100900.59
2022-09-05T20:43:16.585Z,100898.72
2022-09-05T20:43:26.922Z,100907.13
2022-09-05T20:43:58.242Z,100914.44
2022-09-05T20:54:10.217Z,100919.69
2022-09-05T20:54:10.559Z,100919.72
2022-09-05T20:54:23.016Z,100921.28
2022-09-05T20:55:38.651Z,100920.00
2022-09-05T20:58:10.000Z,100924.13
2022-09-05T21:00:40.062Z,100927.13
2022-09-05T21:03:09.249Z,100932.16
2022-09-05T21:05:40.052Z,100933.28
2022-09-05T21:08:34.930Z,100938.56
2022-09-05T21:11:05.087Z,100945.59
2022-09-05T21:13:36.190Z,100939.72
2022-09-05T21:16:15.854Z,100938.44
2022-09-05T21:18:45.254Z,100941.59
2022-09-05T21:21:28.364Z,100940.00
2022-09-05T21:24:15.920Z,100949.31
2022-09-05T21:26:50.416Z,100940.00
2022-09-05T21:29:32.444Z,100937.56
2022-09-05T21:32:10.555Z,100937.78
2022-09-05T21:34:45.092Z,100939.78
2022-09-05T21:37:16.191Z,100933.41
2022-09-05T21:39:59.328Z,100932.06
2022-09-05T21:42:54.753Z,100937.31
2022-09-05T21:47:39.614Z,100947.59
2022-09-05T21:48:08.996Z,100949.66
2022-09-05T21:50:41.925Z,100962.97
2022-09-05T21:55:09.330Z,100956.59
2022-09-05T21:59:20.937Z,100947.91
2022-09-05T21:59:27.094Z,100948.25
2022-09-05T22:01:51.402Z,100933.09
2022-09-05T22:04:22.637Z,100937.94
2022-09-05T22:06:53.206Z,100940.78
2022-09-05T22:09:23.262Z,100938.06
2022-09-05T22:11:53.713Z,100940.50
2022-09-05T22:14:24.490Z,100934.16
2022-09-05T22:16:56.258Z,100939.59
2022-09-05T22:19:37.774Z,100936.69
2022-09-05T22:22:16.266Z,100924.72
2022-09-05T22:24:51.070Z,100927.56
2022-09-05T22:27:22.714Z,100931.53
2022-09-05T22:29:52.490Z,100922.53
2022-09-05T22:32:34.806Z,100934.50
2022-09-05T22:35:27.331Z,100937.88
2022-09-05T22:38:01.417Z,100947.59
2022-09-05T22:40:32.104Z,100942.28
2022-09-05T22:43:05.314Z,100942.09
2022-09-05T22:45:35.206Z,100959.16
2022-09-05T22:48:09.239Z,100956.03
2022-09-05T22:50:37.923Z,100956.56
2022-09-05T22:53:07.145Z,100963.38
2022-09-05T22:55:35.609Z,100976.97
2022-09-05T22:58:05.730Z,100971.25
2022-09-05T23:00:34.778Z,100981.88
2022-09-05T23:03:05.997Z,100973.38
2022-09-05T23:05:35.293Z,100978.97
2022-09-05T23:08:05.213Z,100990.97
2022-09-05T23:10:33.590Z,100970.19
2022-09-05T23:13:06.697Z,100975.44
2022-09-05T23:15:34.927Z,100985.72
2022-09-05T23:18:04.318Z,100974.53
2022-09-05T23:20:33.466Z,100968.53
2022-09-05T23:23:05.490Z,100964.41
2022-09-05T23:25:34.130Z,100962.22
2022-09-05T23:28:08.055Z,100952.16
2022-09-05T23:30:36.737Z,100942.28
2022-09-05T23:33:07.403Z,100935.81
2022-09-05T23:35:36.043Z,100922.38
2022-09-05T23:38:04.667Z,100920.91
2022-09-05T23:40:32.899Z,100921.66
2022-09-05T23:43:01.376Z,100926.53
2022-09-05T23:45:31.333Z,100915.44
2022-09-05T23:47:59.928Z,100912.28
2022-09-05T23:50:29.128Z,100917.09
2022-09-05T23:52:58.012Z,100918.94
2022-09-05T23:55:27.274Z,100933.41
2022-09-05T23:57:58.846Z,100954.63
